createdAt,value
2023-02-25T06:04:22.423Z,97957.31
2023-02-25T06:06:52.992Z,97958.69
2023-02-25T06:09:25.970Z,97962.41
2023-02-25T06:12:11.218Z,97960.41
2023-02-25T06:14:44.705Z,97961.47
2023-02-25T06:17:19.532Z,97957.47
2023-02-25T06:19:58.677Z,97953.97
2023-02-25T06:23:14.114Z,97955.94
2023-02-25T06:25:42.526Z,97965.97
2023-02-25T06:31:27.845Z,97965.38
2023-02-25T06:34:04.522Z,97971.72
2023-02-25T06:36:42.700Z,97968.34
2023-02-25T06:39:18.572Z,97975.63
2023-02-25T06:41:47.227Z,97984.38
2023-02-25T06:44:23.223Z,97982.41
2023-02-25T06:47:18.426Z,97980.63
2023-02-25T06:49:56.502Z,97988.31
2023-02-25T06:53:14.373Z,97984.50
2023-02-25T06:57:04.697Z,97981.91
2023-02-25T06:59:58.098Z,97978.84
2023-02-25T07:06:32.415Z,97985.50
2023-02-25T07:09:49.797Z,97987.44
2023-02-25T07:16:12.979Z,97988.66
2023-02-25T07:18:52.597Z,97990.59
2023-02-25T07:21:19.543Z,97990.72
2023-02-25T07:23:47.604Z,97999.47
2023-02-25T07:26:15.643Z,97994.00
2023-02-25T07:31:48.483Z,97997.28
2023-02-25T07:34:17.938Z,98003.97
2023-02-25T07:36:44.605Z,98009.16
2023-02-25T07:39:12.206Z,98008.34
2023-02-25T07:41:40.180Z,98007.47
2023-02-25T07:44:17.305Z,98007.53
2023-02-25T07:46:44.781Z,98008.97
2023-02-25T07:49:14.225Z,98006.25
2023-02-25T07:51:47.008Z,98009.31
2023-02-25T07:54:18.649Z,98017.88
2023-02-25T07:56:51.466Z,98016.53
2023-02-25T07:59:19.198Z,98020.91
2023-02-25T08:02:04.314Z,98025.09
2023-02-25T08:04:34.617Z,98015.91
2023-02-25T08:07:05.146Z,98013.91
2023-02-25T08:13:08.871Z,98010.19
2023-02-25T08:15:55.721Z,98017.66
2023-02-25T08:18:30.570Z,98019.69
2023-02-25T08:21:24.064Z,98018.69
2023-02-25T08:24:04.554Z,98016.44
2023-02-25T08:27:04.320Z,98017.13
2023-02-25T08:29:46.827Z,98035.44
2023-02-25T08:32:35.173Z,98027.25
2023-02-25T08:35:27.255Z,98023.56
2023-02-25T08:38:21.033Z,98025.84
2023-02-25T08:41:19.998Z,98020.69
2023-02-25T08:44:14.360Z,98029.97
2023-02-25T08:46:54.813Z,98029.78
2023-02-25T08:49:35.308Z,98032.91
2023-02-25T08:52:47.527Z,98026.28
2023-02-25T08:55:31.290Z,98033.75
2023-02-25T08:58:53.514Z,98033.28
2023-02-25T09:01:53.357Z,98041.44
2023-02-25T09:14:58.414Z,98045.16
2023-02-25T09:17:35.148Z,98049.16
2023-02-25T09:24:20.854Z,98042.97
2023-02-25T09:30:21.674Z,98045.88
2023-02-25T09:32:57.895Z,98046.91
2023-02-25T09:35:25.930Z,98047.41
2023-02-25T09:38:08.238Z,98049.09
2023-02-25T09:40:45.474Z,98053.53
2023-02-25T09:43:28.551Z,98051.16
2023-02-25T09:46:06.621Z,98051.41
2023-02-25T09:48:38.943Z,98052.56
2023-02-25T09:51:22.744Z,98048.72
2023-02-25T09:54:22.422Z,98053.91
2023-02-25T09:56:52.951Z,98057.91
2023-02-25T10:05:49.685Z,98074.63
2023-02-25T10:08:26.951Z,98062.78
2023-02-25T10:11:09.288Z,98065.19
2023-02-25T10:13:44.801Z,98059.16
2023-02-25T10:16:34.374Z,98059.66
2023-02-25T10:19:37.118Z,98055.03
2023-02-25T10:22:17.394Z,98059.69
2023-02-25T10:24:49.190Z,98062.88
2023-02-25T10:27:37.517Z,98069.84
2023-02-25T10:30:28.178Z,98080.34
2023-02-25T10:32:56.182Z,98082.00
2023-02-25T10:41:24.213Z,98077.69
2023-02-25T10:43:51.681Z,98078.38
2023-02-25T10:46:54.524Z,98079.84
2023-02-25T10:49:26.122Z,98089.56
2023-02-25T10:52:06.557Z,98117.41
2023-02-25T10:54:36.261Z,98116.34
2023-02-25T10:57:12.826Z,98132.47
2023-02-25T10:59:40.986Z,98122.78
2023-02-25T11:02:25.690Z,98126.75
2023-02-25T11:04:54.199Z,98126.41
2023-02-25T11:07:40.081Z,98117.34
2023-02-25T11:10:20.533Z,98127.16
2023-02-25T11:12:57.090Z,98121.88
2023-02-25T11:15:41.567Z,98132.69
2023-02-25T11:18:29.669Z,98128.59
2023-02-25T11:21:00.924Z,98130.09
2023-02-25T11:23:34.322Z,98117.88
2023-02-25T11:26:01.608Z,98117.34
2023-02-25T11:28:33.122Z,98107.59
2023-02-25T11:31:11.555Z,98113.25
2023-02-25T11:33:42.689Z,98104.72
2023-02-25T11:39:37.734Z,98114.31
2023-02-25T11:42:23.206Z,98118.56
2023-02-25T11:44:49.866Z,98103.41
2023-02-25T11:47:26.678Z,98106.22
2023-02-25T11:50:06.437Z,98103.72
2023-02-25T11:52:41.265Z,98099.28
2023-02-25T11:55:10.772Z,98086.25
2023-02-25T11:57:48.061Z,98093.94
2023-02-25T12:00:49.955Z,98085.41
2023-02-25T12:04:04.380Z,98078.94
2023-02-25T12:06:33.514Z,98068.25
2023-02-25T12:09:05.726Z,98075.47
2023-02-25T12:11:51.205Z,98073.97
2023-02-25T12:14:39.781Z,98077.63
2023-02-25T12:17:44.048Z,98077.41
2023-02-25T12:20:35.747Z,98072.94
2023-02-25T12:23:21.225Z,98070.13
2023-02-25T12:26:44.012Z,98066.03
2023-02-25T12:29:49.085Z,98066.72
2023-02-25T12:32:24.555Z,98072.25
2023-02-25T12:35:12.486Z,98069.88
2023-02-25T12:38:14.422Z,98081.41
2023-02-25T12:40:43.914Z,98081.03
2023-02-25T12:43:13.676Z,98084.13
2023-02-25T12:45:46.426Z,98078.47
2023-02-25T12:48:25.086Z,98075.69
2023-02-25T12:51:16.965Z,98066.66
2023-02-25T12:53:55.238Z,98067.13
2023-02-25T12:56:21.764Z,98062.00
2023-02-25T12:59:13.382Z,98063.81
2023-02-25T13:02:01.949Z,98048.84
2023-02-25T13:04:53.487Z,98050.59
2023-02-25T13:07:50.636Z,98048.69
2023-02-25T13:10:26.466Z,98055.16
2023-02-25T13:13:05.194Z,98044.13
2023-02-25T13:15:49.595Z,98047.59
2023-02-25T13:18:23.960Z,98043.81
2023-02-25T13:20:53.424Z,98037.94
2023-02-25T13:23:32.338Z,98048.72
2023-02-25T13:26:21.040Z,98140.34
2023-02-25T13:29:58.769Z,98131.13
2023-02-25T13:32:32.618Z,98135.28
2023-02-25T13:35:24.233Z,98115.63
2023-02-25T13:38:06.072Z,98127.72
2023-02-25T13:41:09.839Z,98130.78
2023-02-25T13:44:15.697Z,98134.19
2023-02-25T13:47:18.008Z,98124.75
2023-02-25T13:49:56.655Z,98130.56
2023-02-25T13:52:35.151Z,98119.84
2023-02-25T13:55:09.967Z,98124.47
2023-02-25T13:57:45.598Z,98124.69
2023-02-25T14:00:41.882Z,98116.72
2023-02-25T14:03:42.434Z,98110.50
2023-02-25T14:06:11.946Z,98109.28
2023-02-25T14:08:56.818Z,98110.34
2023-02-25T14:12:00.457Z,98111.22
2023-02-25T14:14:50.883Z,98124.44
2023-02-25T14:17:39.922Z,98122.28
2023-02-25T14:20:11.788Z,98132.97
2023-02-25T14:22:47.850Z,98130.91
2023-02-25T14:25:29.501Z,98126.44
2023-02-25T14:28:08.256Z,98123.47
2023-02-25T14:30:49.110Z,98128.19
2023-02-25T14:33:37.164Z,98135.69
2023-02-25T14:36:16.583Z,98127.09
2023-02-25T14:39:04.746Z,98147.78
2023-02-25T14:41:37.408Z,98170.34
2023-02-25T14:44:21.311Z,98167.88
2023-02-25T14:46:59.760Z,98171.78
2023-02-25T14:49:46.108Z,98185.56
2023-02-25T14:52:41.181Z,98187.09
2023-02-25T14:55:08.010Z,98189.41
2023-02-25T14:57:49.950Z,98192.44
2023-02-25T15:00:19.078Z,98201.38
2023-02-25T15:03:02.305Z,98198.72
2023-02-25T15:05:36.469Z,98202.31
2023-02-25T15:08:21.421Z,98215.13
2023-02-25T15:11:26.070Z,98216.53
2023-02-25T15:14:14.810Z,98212.94
2023-02-25T15:16:54.335Z,98222.19
2023-02-25T15:19:44.226Z,98213.47
2023-02-25T15:22:13.823Z,98210.16
2023-02-25T15:24:41.877Z,98222.47
2023-02-25T15:27:37.792Z,98218.75
2023-02-25T15:30:12.497Z,98226.72
2023-02-25T15:33:02.079Z,98236.41
2023-02-25T15:35:34.685Z,98237.66
2023-02-25T15:38:02.222Z,98237.72
2023-02-25T15:40:31.891Z,98235.03
2023-02-25T15:43:26.351Z,98252.38
2023-02-25T15:46:07.701Z,98244.41
2023-02-25T15:48:39.106Z,98253.38
2023-02-25T15:51:11.522Z,98259.72
2023-02-25T15:53:41.462Z,98259.44
2023-02-25T15:56:08.780Z,98262.81
2023-02-25T15:58:35.581Z,98277.44
2023-02-25T16:01:24.120Z,98285.75
2023-02-25T16:03:52.700Z,98291.75
2023-02-25T16:06:29.580Z,98297.84
2023-02-25T16:09:27.112Z,98303.50
2023-02-25T16:11:58.588Z,98293.59
2023-02-25T16:14:35.756Z,98308.19
2023-02-25T16:17:18.401Z,98306.41
2023-02-25T16:19:50.703Z,98300.25
2023-02-25T16:22:21.779Z,98309.94
2023-02-25T16:24:59.258Z,98312.19
2023-02-25T16:27:48.749Z,98316.41
2023-02-25T16:30:42.121Z,98335.66
2023-02-25T16:33:29.023Z,98340.03
2023-02-25T16:36:08.181Z,98348.50
2023-02-25T16:39:05.446Z,98373.03
2023-02-25T16:41:38.692Z,98359.75
2023-02-25T16:44:06.694Z,98373.06
2023-02-25T16:46:40.373Z,98374.28
2023-02-25T16:49:19.363Z,98374.31
2023-02-25T16:52:00.795Z,98376.94
2023-02-25T16:54:39.934Z,98374.31
2023-02-25T16:57:17.990Z,98380.94
2023-02-25T16:59:44.777Z,98380.41
2023-02-25T17:02:27.100Z,98378.84
2023-02-25T17:04:56.350Z,98374.06
2023-02-25T17:07:25.328Z,98387.13
2023-02-25T17:09:55.093Z,98392.69
2023-02-25T17:12:47.635Z,98390.19
2023-02-25T17:15:26.055Z,98397.94
2023-02-25T17:18:02.182Z,98391.97
2023-02-25T17:20:29.087Z,98402.72
2023-02-25T17:22:58.325Z,98404.47
2023-02-25T17:25:31.464Z,98414.81
2023-02-25T17:27:58.994Z,98418.09
2023-02-25T17:30:33.339Z,98418.06
2023-02-25T17:33:00.240Z,98432.91
2023-02-25T17:35:27.953Z,98434.97
2023-02-25T17:37:56.270Z,98442.34
2023-02-25T17:40:27.148Z,98438.34
2023-02-25T17:43:17.367Z,98435.84
2023-02-25T17:45:56.879Z,98449.47
2023-02-25T17:48:28.735Z,98439.81
2023-02-25T17:50:59.682Z,98445.63
2023-02-25T17:53:48.224Z,98445.44
2023-02-25T17:56:25.489Z,98445.81
2023-02-25T17:58:58.196Z,98447.78
2023-02-25T18:01:29.258Z,98456.69
2023-02-25T18:03:57.437Z,98457.84
2023-02-25T18:06:31.358Z,98462.25
2023-02-25T18:09:02.713Z,98463.13
2023-02-25T18:11:38.821Z,98471.63
2023-02-25T18:14:37.662Z,98480.44
2023-02-25T18:17:26.702Z,98484.03
2023-02-25T18:19:58.243Z,98490.84
2023-02-25T18:22:27.929Z,98494.19
2023-02-25T18:24:57.932Z,98500.19
2023-02-25T18:27:27.581Z,98502.41
2023-02-25T18:30:18.094Z,98505.09
2023-02-25T18:32:46.264Z,98507.38
2023-02-25T18:35:13.119Z,98497.31
2023-02-25T18:37:40.831Z,98505.09
2023-02-25T18:40:11.002Z,98507.47
2023-02-25T18:42:37.672Z,98505.66
2023-02-25T18:45:19.394Z,98516.34
2023-02-25T18:47:46.217Z,98521.38
2023-02-25T18:50:12.868Z,98516.03
2023-02-25T18:52:40.656Z,98515.25
2023-02-25T18:55:08.773Z,98520.50
2023-02-25T18:57:35.345Z,98527.50
2023-02-25T19:00:01.893Z,98540.44
2023-02-25T19:02:38.220Z,98535.97
2023-02-25T19:05:06.863Z,98545.41
2023-02-25T19:07:34.924Z,98544.09
2023-02-25T19:10:02.034Z,98552.47
2023-02-25T19:12:31.348Z,98543.56
2023-02-25T19:15:00.786Z,98556.50
2023-02-25T19:17:28.994Z,98557.38
2023-02-25T19:19:56.624Z,98549.03
2023-02-25T19:22:24.401Z,98556.50
2023-02-25T19:24:52.055Z,98563.47
2023-02-25T19:27:24.670Z,98564.22
2023-02-25T19:29:53.644Z,98576.28
2023-02-25T19:32:21.342Z,98571.41
2023-02-25T19:34:48.970Z,98575.75
2023-02-25T19:37:17.641Z,98577.44
2023-02-25T19:39:44.669Z,98578.47
2023-02-25T19:42:12.410Z,98578.53
2023-02-25T19:44:39.723Z,98584.47
2023-02-25T19:47:08.054Z,98590.44
2023-02-25T19:49:34.579Z,98594.78
2023-02-25T19:52:01.262Z,98594.91
2023-02-25T19:54:27.952Z,98601.75
2023-02-25T19:56:54.510Z,98604.44
2023-02-25T19:59:22.078Z,98608.69
2023-02-25T20:01:49.670Z,98613.97
2023-02-25T20:04:16.920Z,98611.53
2023-02-25T20:06:43.618Z,98618.31
2023-02-25T20:09:10.357Z,98620.06
2023-02-25T20:11:37.360Z,98620.06
2023-02-25T20:14:05.079Z,98615.66
2023-02-25T20:16:33.588Z,98614.06
2023-02-25T20:19:00.855Z,98620.06
2023-02-25T20:21:28.371Z,98619.28
2023-02-25T20:23:58.949Z,98621.88
2023-02-25T20:26:30.312Z,98633.97
2023-02-25T20:28:57.670Z,98634.97
2023-02-25T20:31:25.934Z,98637.47
2023-02-25T20:33:56.220Z,98644.38
2023-02-25T20:36:23.698Z,98641.81
2023-02-25T20:39:12.608Z,98640.81
2023-02-25T20:41:40.781Z,98644.34
2023-02-25T20:44:08.376Z,98645.94
2023-02-25T20:46:36.318Z,98650.22
2023-02-25T20:49:04.315Z,98659.69
2023-02-25T20:51:32.090Z,98659.69
2023-02-25T20:53:59.550Z,98663.13
2023-02-25T20:56:27.737Z,98667.47
2023-02-25T20:58:55.010Z,98669.19
2023-02-25T21:01:22.220Z,98669.97
2023-02-25T21:03:49.068Z,98682.06
2023-02-25T21:06:27.776Z,98678.69
2023-02-25T21:08:55.141Z,98675.31
2023-02-25T21:11:26.694Z,98686.50
2023-02-25T21:13:57.883Z,98683.00
2023-02-25T21:16:25.288Z,98693.22
2023-02-25T21:18:58.203Z,98690.63
2023-02-25T21:21:29.784Z,98688.13
2023-02-25T21:23:59.823Z,98685.47
2023-02-25T21:26:29.507Z,98683.81
2023-02-25T21:28:56.594Z,98689.78
2023-02-25T21:31:23.637Z,98685.50
2023-02-25T21:33:58.647Z,98689.84
2023-02-25T21:36:25.491Z,98692.34
2023-02-25T21:38:52.451Z,98689.75
2023-02-25T21:41:19.470Z,98696.56
2023-02-25T21:43:46.324Z,98704.28
2023-02-25T21:46:16.270Z,98692.13
2023-02-25T21:48:44.427Z,98692.06
2023-02-25T21:51:16.770Z,98692.91
2023-02-25T21:53:43.469Z,98695.47
2023-02-25T21:56:13.404Z,98698.94
2023-02-25T21:58:40.118Z,98695.53
2023-02-25T22:01:22.798Z,98702.75
2023-02-25T22:03:49.709Z,98698.44
2023-02-25T22:06:16.848Z,98707.88
2023-02-25T22:08:45.659Z,98699.38
2023-02-25T22:11:18.580Z,98704.59
2023-02-25T22:13:45.369Z,98703.69
2023-02-25T22:16:14.718Z,98707.19
2023-02-25T22:18:42.015Z,98706.31
2023-02-25T22:21:14.964Z,98713.25
2023-02-25T22:23:43.527Z,98707.19
2023-02-25T23:04:20.046Z,98737.38
2023-02-25T23:06:47.234Z,98739.16
2023-02-25T23:09:14.341Z,98746.84
2023-02-25T23:11:42.883Z,98748.59
2023-02-25T23:14:10.432Z,98756.38
2023-02-25T23:16:40.401Z,98751.19
2023-02-25T23:19:09.689Z,98750.34
2023-02-25T23:21:38.679Z,98752.91
2023-02-25T23:24:07.726Z,98754.63
2023-02-25T23:26:39.317Z,98761.50
2023-02-25T23:29:08.670Z,98758.09
2023-02-25T23:31:38.384Z,98765.78
2023-02-25T23:34:15.437Z,98755.44
2023-02-25T23:36:44.131Z,98763.19
2023-02-25T23:39:12.964Z,98769.25
2023-02-25T23:41:40.209Z,98764.06
2023-02-25T23:44:09.105Z,98770.13
2023-02-25T23:46:36.791Z,98763.22
2023-02-25T23:49:09.395Z,98768.41
2023-02-25T23:51:36.729Z,98764.09
2023-02-25T23:54:06.405Z,98767.53
2023-02-25T23:56:34.431Z,98768.41
2023-02-25T23:59:01.048Z,98769.22
